Time;durP1;ratioP1;P1;durP2;ratioP2;P2;SDS_P1;SDS_P2;PMS_P1;PMS_P2;Temp;Humidity;BMP_temperature;BMP_pressure;BME280_temperature;BME280_humidity;BME280_pressure;Samples;Min_cycle;Max_cycle;Signal;HPM_P1;HPM_P2
2021/06/28 00:00:18;;;;;;;7.07;4.72;;;;;;;14.01;68.89;101455.22;4949612;28;20410;-83
2021/06/28 00:02:44;;;;;;;8.65;4.38;;;;;;;13.91;69.48;101450.03;4966994;28;20035;-84
2021/06/28 00:05:12;;;;;;;9.48;4.65;;;;;;;13.88;69.47;101439.59;4986001;28;20041;-84
2021/06/28 00:07:37;;;;;;;7.80;4.82;;;;;;;13.82;69.37;101446.56;4953594;28;20027;-83
2021/06/28 00:10:05;;;;;;;7.80;5.10;;;;;;;13.86;69.93;101452.44;4949711;28;20082;-83
2021/06/28 00:12:31;;;;;;;7.57;4.65;;;;;;;13.78;70.42;101457.91;4980078;28;20034;-83
2021/06/28 00:14:56;;;;;;;8.25;4.57;;;;;;;13.64;70.81;101456.81;4969323;28;20088;-84
2021/06/28 00:17:22;;;;;;;9.27;4.72;;;;;;;13.55;71.08;101444.41;4987269;28;20021;-84
2021/06/28 00:19:47;;;;;;;8.02;5.45;;;;;;;13.51;71.05;101424.97;4977731;28;20085;-83
2021/06/28 00:22:13;;;;;;;9.43;5.05;;;;;;;13.67;70.74;101444.81;4963074;28;20022;-83
2021/06/28 00:24:38;;;;;;;5.57;4.28;;;;;;;13.33;70.87;101400.13;4977994;28;20117;-83
2021/06/28 00:27:04;;;;;;;7.53;4.93;;;;;;;13.67;70.63;101448.34;4964740;28;20030;-83
2021/06/28 00:29:30;;;;;;;8.40;4.72;;;;;;;13.70;70.51;101444.44;4966511;28;20021;-83
2021/06/28 00:31:55;;;;;;;8.05;4.90;;;;;;;13.65;70.36;101436.88;4954630;28;20030;-84
2021/06/28 00:34:22;;;;;;;8.55;4.95;;;;;;;13.70;70.63;101436.34;4970635;28;20101;-82
2021/06/28 00:36:48;;;;;;;7.20;5.10;;;;;;;13.57;70.46;101429.66;4971317;28;20081;-83
2021/06/28 00:39:14;;;;;;;7.70;4.85;;;;;;;13.62;70.38;101437.25;4974438;28;20019;-83
2021/06/28 00:41:39;;;;;;;7.35;5.13;;;;;;;13.52;70.00;101437.50;4966078;28;20021;-83
2021/06/28 00:44:05;;;;;;;10.50;5.55;;;;;;;13.51;70.18;101441.19;4971259;28;20035;-84
2021/06/28 00:46:30;;;;;;;8.85;4.72;;;;;;;13.39;70.44;101418.31;4973286;28;20034;-84
2021/06/28 00:48:56;;;;;;;8.30;4.32;;;;;;;13.09;71.59;101401.91;4969263;28;20062;-85
2021/06/28 00:51:23;;;;;;;7.45;4.78;;;;;;;13.01;72.24;101411.91;4970775;28;20023;-85
2021/06/28 00:53:49;;;;;;;7.57;4.88;;;;;;;13.14;72.50;101434.63;4977464;28;20026;-85
2021/06/28 00:56:16;;;;;;;9.75;5.30;;;;;;;13.19;71.85;101432.22;4960060;28;20022;-85
2021/06/28 00:58:43;;;;;;;7.55;4.97;;;;;;;13.29;71.69;101442.84;4972460;28;20026;-85
2021/06/28 01:01:09;;;;;;;6.55;4.85;;;;;;;13.19;71.35;101409.78;4968138;28;20382;-86
2021/06/28 01:03:35;;;;;;;10.07;5.30;;;;;;;13.36;71.08;101432.16;4966629;28;20027;-85
2021/06/28 01:06:04;;;;;;;8.82;4.93;;;;;;;13.29;71.51;101434.75;4968953;28;20033;-85
2021/06/28 01:08:29;;;;;;;8.32;5.20;;;;;;;13.30;71.31;101424.78;4953694;28;20022;-85
2021/06/28 01:10:55;;;;;;;9.30;5.55;;;;;;;13.19;71.57;101404.38;4971869;28;20042;-86
2021/06/28 01:13:20;;;;;;;6.70;4.80;;;;;;;13.21;71.92;101410.47;4971974;28;20027;-86
2021/06/28 01:15:47;;;;;;;7.82;4.90;;;;;;;13.12;72.44;101406.94;4952554;28;20031;-86
2021/06/28 01:18:12;;;;;;;8.80;5.47;;;;;;;13.27;72.30;101425.97;4946624;28;20030;-85
2021/06/28 01:20:38;;;;;;;7.45;5.55;;;;;;;13.23;72.81;101421.94;4970953;28;20026;-85
2021/06/28 01:23:25;;;;;;;7.53;5.03;;;;;;;13.13;73.32;101415.91;4985542;28;20058;-85
2021/06/28 01:25:57;;;;;;;12.15;5.00;;;;;;;13.04;73.83;101419.66;4956165;28;20077;-84
2021/06/28 01:28:23;;;;;;;10.75;5.70;;;;;;;12.88;74.54;101399.81;4959501;28;20026;-85
2021/06/28 01:30:50;;;;;;;12.38;5.93;;;;;;;12.85;74.83;101408.25;4965049;28;20038;-85
2021/06/28 01:33:16;;;;;;;8.98;5.20;;;;;;;12.87;74.66;101402.69;4967537;28;20541;-85
2021/06/28 01:35:42;;;;;;;12.88;5.35;;;;;;;12.89;75.01;101406.06;4966398;28;20065;-85
2021/06/28 01:38:08;;;;;;;8.68;5.10;;;;;;;12.76;75.21;101395.81;4969609;28;20062;-85
2021/06/28 01:40:35;;;;;;;10.57;5.45;;;;;;;12.85;75.33;101416.34;4968090;28;20033;-85
2021/06/28 01:43:01;;;;;;;10.85;5.22;;;;;;;12.65;74.73;101361.09;4968189;28;20491;-86
2021/06/28 01:45:26;;;;;;;8.10;5.00;;;;;;;12.97;74.28;101398.75;4954282;28;20049;-86
2021/06/28 01:47:54;;;;;;;9.13;6.10;;;;;;;12.99;73.57;101393.16;4969964;28;20037;-85
2021/06/28 01:50:21;;;;;;;9.63;5.93;;;;;;;12.69;74.48;101357.06;4952460;28;20026;-85
2021/06/28 01:52:47;;;;;;;7.35;5.60;;;;;;;12.73;74.57;101371.88;4951325;28;20061;-85
2021/06/28 01:55:14;;;;;;;9.35;5.47;;;;;;;12.81;75.02;101398.84;4970585;28;20479;-86
2021/06/28 01:57:44;;;;;;;8.75;5.50;;;;;;;12.77;75.25;101389.41;4986922;28;20033;-85
2021/06/28 02:00:12;;;;;;;8.30;5.47;;;;;;;12.71;75.53;101400.91;4954457;28;20484;-85
2021/06/28 02:02:38;;;;;;;9.27;5.90;;;;;;;12.44;76.34;101367.94;4968579;28;20065;-83
2021/06/28 02:05:05;;;;;;;11.27;5.85;;;;;;;12.55;76.47;101385.59;4968467;28;20109;-86
2021/06/28 02:07:31;;;;;;;9.57;5.97;;;;;;;12.25;76.75;101344.91;4960622;28;20112;-84
2021/06/28 02:09:56;;;;;;;9.77;5.75;;;;;;;12.41;76.85;101370.13;4980919;28;20023;-84
2021/06/28 02:12:22;;;;;;;13.68;6.10;;;;;;;12.52;76.46;101372.47;4971022;28;20058;-86
2021/06/28 02:14:47;;;;;;;10.55;5.97;;;;;;;12.50;76.50;101378.03;4955864;28;20117;-86
2021/06/28 02:17:13;;;;;;;8.98;5.82;;;;;;;12.42;76.95;101358.34;4969760;28;20053;-86
2021/06/28 02:19:38;;;;;;;10.95;5.57;;;;;;;12.41;76.44;101356.63;4968103;28;20105;-84
2021/06/28 02:22:04;;;;;;;10.20;6.05;;;;;;;12.49;76.87;101348.50;4972254;28;20060;-85
2021/06/28 02:24:29;;;;;;;8.95;5.70;;;;;;;12.60;76.24;101352.72;4953903;28;20033;-84
2021/06/28 02:26:55;;;;;;;8.63;5.88;;;;;;;12.61;76.08;101347.13;4980200;28;20510;-85
2021/06/28 02:29:20;;;;;;;10.43;6.10;;;;;;;12.64;76.10;101357.56;4971105;28;20072;-84
2021/06/28 02:31:46;;;;;;;7.68;5.82;;;;;;;12.72;76.16;101359.41;4977000;28;20095;-84
2021/06/28 02:34:12;;;;;;;8.70;5.50;;;;;;;12.85;75.56;101375.03;4953528;28;20087;-86
2021/06/28 02:36:38;;;;;;;13.68;6.07;;;;;;;12.72;75.43;101359.41;4977301;28;20086;-84
2021/06/28 02:39:05;;;;;;;10.05;6.20;;;;;;;12.74;75.78;101371.69;4981538;28;20027;-85
2021/06/28 02:41:30;;;;;;;10.10;6.07;;;;;;;12.74;76.12;101369.00;4955365;28;20034;-85
2021/06/28 02:43:56;;;;;;;11.95;6.50;;;;;;;12.73;75.85;101374.59;4953526;28;20085;-85
2021/06/28 02:46:22;;;;;;;11.60;6.47;;;;;;;12.58;76.08;101363.66;4966843;28;20030;-85
2021/06/28 02:48:48;;;;;;;11.73;6.00;;;;;;;12.48;76.87;101344.97;4957666;28;20050;-84
2021/06/28 02:51:15;;;;;;;10.18;6.20;;;;;;;12.71;76.59;101369.34;4947790;28;20109;-85
2021/06/28 02:53:41;;;;;;;10.63;5.63;;;;;;;12.69;76.68;101365.97;4959811;28;20126;-86
2021/06/28 02:56:13;;;;;;;12.52;6.03;;;;;;;12.46;77.00;101346.16;4963766;28;20124;-85
2021/06/28 02:58:50;;;;;;;9.27;5.88;;;;;;;12.64;77.03;101373.75;4948770;28;20030;-86
2021/06/28 03:01:17;;;;;;;10.75;6.05;;;;;;;12.51;77.53;101368.91;4968649;28;20033;-84
2021/06/28 03:03:43;;;;;;;9.65;6.13;;;;;;;12.44;77.83;101359.84;4969210;28;20032;-85
2021/06/28 03:06:08;;;;;;;9.18;5.68;;;;;;;12.37;78.22;101355.31;4964063;28;20026;-85
2021/06/28 03:08:34;;;;;;;9.20;6.07;;;;;;;12.26;77.79;101332.25;4969290;28;20030;-85
2021/06/28 03:11:01;;;;;;;10.35;6.15;;;;;;;12.43;78.29;101355.44;4954689;28;20369;-85
2021/06/28 03:13:28;;;;;;;10.30;5.95;;;;;;;12.49;77.38;101349.38;4952238;28;20046;-85
2021/06/28 03:15:54;;;;;;;9.30;5.95;;;;;;;12.54;77.37;101351.53;4951289;28;20030;-85
2021/06/28 03:18:19;;;;;;;8.23;5.45;;;;;;;12.50;77.00;101353.75;4977045;28;20036;-85
2021/06/28 03:20:45;;;;;;;10.20;5.95;;;;;;;12.30;77.63;101334.44;4967665;28;20027;-84
2021/06/28 03:23:11;;;;;;;11.95;6.28;;;;;;;12.35;77.05;101327.66;4956239;28;20269;-85
2021/06/28 03:25:37;;;;;;;10.70;5.72;;;;;;;12.49;76.93;101352.06;4983535;28;20022;-85
2021/06/28 03:28:03;;;;;;;11.73;6.20;;;;;;;12.25;77.12;101331.44;4966747;28;20034;-86
2021/06/28 03:30:28;;;;;;;15.85;6.25;;;;;;;12.13;77.27;101319.31;4963499;28;20046;-85
2021/06/28 03:32:54;;;;;;;12.65;6.43;;;;;;;12.39;76.54;101358.69;4953230;28;20023;-84
2021/06/28 03:35:19;;;;;;;10.52;6.45;;;;;;;12.30;76.71;101347.94;4962922;28;20026;-85
2021/06/28 03:37:45;;;;;;;9.63;6.53;;;;;;;12.30;76.83;101349.75;4963324;28;20403;-86
2021/06/28 03:40:12;;;;;;;10.45;6.68;;;;;;;12.39;77.14;101362.22;4988039;28;20045;-84
2021/06/28 03:42:37;;;;;;;9.35;5.75;;;;;;;12.23;77.43;101346.94;4969506;28;20035;-84
2021/06/28 03:45:05;;;;;;;10.45;6.07;;;;;;;12.24;77.52;101361.25;4967965;28;20042;-86
2021/06/28 03:47:30;;;;;;;9.07;6.10;;;;;;;12.17;77.39;101339.53;4969148;28;20129;-85
2021/06/28 03:49:56;;;;;;;11.32;6.60;;;;;;;12.23;77.69;101343.41;4951547;28;20153;-85
2021/06/28 03:52:21;;;;;;;9.70;5.55;;;;;;;12.23;77.59;101349.63;4966467;28;20034;-85
2021/06/28 03:54:47;;;;;;;10.10;6.15;;;;;;;11.96;77.66;101313.13;4952199;28;20030;-84
2021/06/28 03:57:12;;;;;;;10.65;5.43;;;;;;;12.17;77.79;101344.06;4957215;28;20105;-85
2021/06/28 03:59:38;;;;;;;9.23;5.80;;;;;;;12.08;78.00;101332.47;4965383;28;20019;-84
2021/06/28 04:02:03;;;;;;;10.40;6.47;;;;;;;12.22;77.52;101339.00;4961735;28;20026;-85
2021/06/28 04:04:29;;;;;;;12.20;6.90;;;;;;;12.17;77.47;101334.13;4980192;28;20530;-84
2021/06/28 04:06:55;;;;;;;12.07;6.20;;;;;;;12.22;76.94;101331.75;4956083;28;20018;-85
2021/06/28 04:09:20;;;;;;;9.65;5.53;;;;;;;12.19;77.17;101337.47;4954008;28;20089;-84
2021/06/28 04:11:46;;;;;;;9.32;5.97;;;;;;;12.10;77.67;101342.06;4967552;28;20034;-84
2021/06/28 04:14:13;;;;;;;10.07;6.28;;;;;;;12.17;77.64;101344.94;4982786;28;20058;-85
2021/06/28 04:16:38;;;;;;;10.48;5.97;;;;;;;12.17;77.41;101328.75;4967138;28;20050;-85
2021/06/28 04:19:04;;;;;;;8.38;6.07;;;;;;;12.26;77.46;101337.66;4955523;28;20061;-85
2021/06/28 04:21:34;;;;;;;8.95;5.47;;;;;;;12.24;77.37;101351.28;4965667;28;20050;-85
2021/06/28 04:24:04;;;;;;;12.25;6.65;;;;;;;12.22;77.42;101347.09;4974841;28;20026;-84
2021/06/28 04:26:29;;;;;;;10.02;5.65;;;;;;;12.20;77.64;101347.28;4967670;28;20108;-85
2021/06/28 04:28:56;;;;;;;9.30;5.82;;;;;;;12.16;77.28;101332.44;4955203;28;20046;-85
2021/06/28 04:31:21;;;;;;;10.57;5.85;;;;;;;12.05;76.76;101311.25;4964334;28;20041;-85
2021/06/28 04:33:46;;;;;;;11.70;5.97;;;;;;;12.24;77.04;101343.19;4982541;28;20550;-85
2021/06/28 04:36:12;;;;;;;9.50;5.80;;;;;;;12.18;77.05;101330.41;4979578;28;20027;-84
2021/06/28 04:38:38;;;;;;;9.88;6.05;;;;;;;12.26;77.32;101340.34;4966569;28;20027;-86
2021/06/28 04:41:03;;;;;;;8.75;5.85;;;;;;;12.17;77.11;101339.53;4966990;28;20058;-84
2021/06/28 04:43:28;;;;;;;11.40;6.05;;;;;;;12.17;77.42;101355.72;4981109;28;20082;-84
2021/06/28 04:45:54;;;;;;;10.77;6.22;;;;;;;12.10;77.29;101355.53;4951818;28;20462;-84
2021/06/28 04:48:19;;;;;;;11.15;5.82;;;;;;;12.20;76.53;101365.28;4966746;28;20034;-84
2021/06/28 04:50:45;;;;;;;10.80;5.47;;;;;;;12.14;76.87;101364.13;4966965;28;20022;-85
2021/06/28 04:53:11;;;;;;;7.03;4.38;;;;;;;11.84;77.36;101350.31;4964545;28;20081;-85
2021/06/28 04:55:36;;;;;;;7.60;4.32;;;;;;;11.77;77.87;101356.53;4952320;28;20730;-85
2021/06/28 04:58:01;;;;;;;7.40;4.75;;;;;;;11.83;77.87;101378.28;4963523;28;20506;-85
2021/06/28 05:00:27;;;;;;;7.20;4.60;;;;;;;11.71;77.90;101357.22;4946371;28;20026;-86
2021/06/28 05:02:53;;;;;;;7.85;4.68;;;;;;;11.41;78.09;101327.28;4962082;28;20053;-85
2021/06/28 05:05:19;;;;;;;7.00;4.30;;;;;;;11.63;78.42;101368.84;4952241;28;20108;-85
2021/06/28 05:07:45;;;;;;;8.98;5.00;;;;;;;11.59;78.85;101362.09;4954435;28;20404;-85
2021/06/28 05:10:12;;;;;;;8.50;4.85;;;;;;;11.66;78.71;101381.97;4965971;28;20549;-84
2021/06/28 05:12:38;;;;;;;7.43;4.90;;;;;;;11.47;78.87;101348.13;4983248;28;20049;-85
2021/06/28 05:15:05;;;;;;;8.45;5.40;;;;;;;11.68;78.62;101371.88;4987818;28;20069;-86
2021/06/28 05:17:31;;;;;;;7.82;4.93;;;;;;;11.54;79.14;101346.47;4989712;28;20081;-85
2021/06/28 05:19:56;;;;;;;10.20;4.43;;;;;;;11.70;78.61;101359.09;4954259;28;20026;-85
2021/06/28 05:22:22;;;;;;;7.72;4.93;;;;;;;11.77;78.72;101364.63;4968418;28;20109;-86
2021/06/28 05:24:47;;;;;;;6.38;4.40;;;;;;;11.84;78.27;101361.09;4965815;28;20383;-85
2021/06/28 05:27:13;;;;;;;6.10;3.95;;;;;;;11.59;78.26;101336.03;4964812;28;20070;-84
2021/06/28 05:29:38;;;;;;;8.70;4.72;;;;;;;11.54;78.48;101345.63;4953559;28;20027;-85
2021/06/28 05:32:04;;;;;;;8.52;4.45;;;;;;;11.68;78.49;101365.66;4953656;28;20096;-85
2021/06/28 05:34:29;;;;;;;8.02;4.55;;;;;;;11.73;78.41;101385.69;4952729;28;20132;-86
2021/06/28 05:36:55;;;;;;;6.75;4.32;;;;;;;11.64;78.62;101365.13;4971148;28;20434;-85
2021/06/28 05:39:20;;;;;;;7.45;5.00;;;;;;;11.55;78.71;101355.38;4972555;28;20401;-85
2021/06/28 05:41:46;;;;;;;9.73;4.40;;;;;;;11.70;78.75;101375.25;4965488;28;20038;-84
2021/06/28 05:44:12;;;;;;;6.95;4.35;;;;;;;11.72;78.54;101386.69;4969424;28;20042;-85
2021/06/28 05:46:37;;;;;;;10.10;4.63;;;;;;;11.68;78.71;101398.81;4955625;28;20117;-84
2021/06/28 05:49:03;;;;;;;7.28;4.72;;;;;;;11.59;78.76;101381.81;4967296;28;20054;-84
2021/06/28 05:51:28;;;;;;;7.53;4.25;;;;;;;11.63;78.86;101382.31;4956842;28;20034;-84
2021/06/28 05:53:54;;;;;;;7.57;4.15;;;;;;;11.72;78.81;101396.63;4971183;28;20569;-85
2021/06/28 05:56:19;;;;;;;8.50;4.32;;;;;;;11.55;78.39;101361.59;4984347;28;20113;-84
2021/06/28 05:58:45;;;;;;;8.25;4.75;;;;;;;11.87;78.02;101397.66;4986260;28;20368;-84
2021/06/28 06:01:11;;;;;;;6.10;3.97;;;;;;;11.88;77.64;101394.81;4965635;28;20110;-84
2021/06/28 06:03:37;;;;;;;7.75;4.30;;;;;;;11.83;78.59;101393.63;4954506;28;20057;-85
2021/06/28 06:06:03;;;;;;;8.88;4.38;;;;;;;11.88;77.97;101383.16;4966661;28;20114;-85
2021/06/28 06:08:29;;;;;;;6.43;4.03;;;;;;;11.94;77.89;101387.06;4986236;28;20034;-84
2021/06/28 06:10:57;;;;;;;8.65;4.40;;;;;;;11.90;77.36;101370.38;4966935;28;20084;-85
2021/06/28 06:13:23;;;;;;;6.78;4.78;;;;;;;12.05;76.80;101395.63;4985926;28;20022;-85
2021/06/28 06:15:48;;;;;;;7.30;4.22;;;;;;;11.75;77.12;101359.44;4956731;28;20030;-84
2021/06/28 06:18:14;;;;;;;5.97;3.83;;;;;;;11.66;78.23;101373.88;4969311;28;20030;-85
2021/06/28 06:20:40;;;;;;;7.20;4.20;;;;;;;11.90;78.18;101391.94;4982662;28;20110;-84
2021/06/28 06:23:06;;;;;;;6.35;4.00;;;;;;;11.96;77.13;101380.50;4952606;28;20026;-84
2021/06/28 06:25:32;;;;;;;6.38;4.18;;;;;;;11.99;76.36;101363.16;4966595;28;20026;-85
2021/06/28 06:27:57;;;;;;;5.72;3.72;;;;;;;12.34;76.30;101390.72;4972021;28;20483;-85
2021/06/28 06:30:23;;;;;;;6.65;3.47;;;;;;;12.44;76.19;101394.91;4956801;28;20022;-85
2021/06/28 06:32:49;;;;;;;6.82;3.88;;;;;;;12.51;75.85;101384.25;4990126;28;20069;-85
2021/06/28 06:35:15;;;;;;;4.30;2.95;;;;;;;12.61;75.26;101384.06;4957901;28;20022;-84
2021/06/28 06:37:41;;;;;;;8.18;4.05;;;;;;;12.61;75.47;101382.19;4964741;28;20031;-84
2021/06/28 06:40:08;;;;;;;6.13;3.50;;;;;;;12.81;74.63;101397.97;4963977;28;20100;-84
2021/06/28 06:42:33;;;;;;;6.13;3.92;;;;;;;12.97;74.01;101398.75;4974110;28;20026;-85
2021/06/28 06:44:59;;;;;;;7.32;3.45;;;;;;;13.23;72.85;101399.47;4964103;28;20084;-84
2021/06/28 06:47:24;;;;;;;7.50;3.60;;;;;;;13.27;72.74;101392.72;4957152;28;20418;-84
2021/06/28 06:49:50;;;;;;;5.95;3.70;;;;;;;13.36;72.31;101411.41;4958882;28;20022;-84
2021/06/28 06:52:17;;;;;;;8.88;3.88;;;;;;;13.34;72.73;101410.75;4973863;28;20034;-84
2021/06/28 06:54:42;;;;;;;6.15;3.88;;;;;;;13.33;73.29;101413.63;4957072;28;20026;-84
2021/06/28 06:57:10;;;;;;;7.57;4.47;;;;;;;13.51;72.98;101414.19;4957229;28;20025;-85
2021/06/28 06:59:35;;;;;;;7.75;4.03;;;;;;;13.43;72.32;101381.81;4954967;28;20109;-84
2021/06/28 07:02:01;;;;;;;6.68;4.13;;;;;;;13.73;71.14;101409.78;4963447;28;20141;-84
2021/06/28 07:04:26;;;;;;;7.45;5.38;;;;;;;13.95;70.04;101409.97;4971928;28;20030;-84
2021/06/28 07:06:52;;;;;;;6.38;4.35;;;;;;;14.17;69.25;101400.97;4969532;28;20046;-84
2021/06/28 07:09:17;;;;;;;8.80;4.20;;;;;;;14.28;69.37;101419.44;4986016;28;20081;-84
2021/06/28 07:11:43;;;;;;;6.63;4.00;;;;;;;14.21;69.03;101420.38;4977275;28;20498;-84
2021/06/28 07:14:09;;;;;;;7.72;4.53;;;;;;;14.15;68.99;101418.41;4978215;28;20080;-85
2021/06/28 07:16:34;;;;;;;6.78;4.40;;;;;;;13.96;68.83;101407.06;4959294;28;20018;-84
2021/06/28 07:19:02;;;;;;;7.18;4.32;;;;;;;14.08;69.42;101427.25;4974885;28;20375;-85
2021/06/28 07:21:28;;;;;;;8.18;4.20;;;;;;;14.03;69.12;101424.25;4957652;28;20038;-85
2021/06/28 07:23:55;;;;;;;8.52;4.90;;;;;;;13.94;69.47;101403.72;4977308;28;20040;-85
2021/06/28 07:26:24;;;;;;;7.90;4.28;;;;;;;13.84;69.75;101393.16;4995438;28;20026;-84
2021/06/28 07:32:24;;;;;;;6.38;4.22;;;;;;;14.09;69.66;101398.34;4910279;28;20057;-85
2021/06/28 07:34:50;;;;;;;9.50;5.13;;;;;;;14.33;69.03;101382.91;4964170;28;20413;-85
2021/06/28 07:37:15;;;;;;;8.27;4.38;;;;;;;14.64;68.26;101407.13;4968200;28;20505;-76
2021/06/28 07:39:41;;;;;;;7.47;4.50;;;;;;;14.69;68.43;101421.78;4979941;28;20096;-76
2021/06/28 07:42:06;;;;;;;6.97;4.03;;;;;;;14.68;68.13;101416.53;4953834;28;20481;-76
2021/06/28 07:44:32;;;;;;;8.45;4.63;;;;;;;14.62;67.70;101428.94;4975726;28;20030;-76
2021/06/28 07:46:58;;;;;;;8.25;4.20;;;;;;;14.56;68.24;101439.69;4960802;28;20565;-76
2021/06/28 07:49:23;;;;;;;7.78;4.32;;;;;;;14.52;67.67;101440.03;4950801;28;20077;-76
2021/06/28 07:51:49;;;;;;;8.88;4.38;;;;;;;14.44;68.05;101436.56;4977443;28;20117;-76
2021/06/28 07:54:17;;;;;;;6.82;4.38;;;;;;;14.38;68.74;101437.31;4986201;28;20041;-77
2021/06/28 07:56:43;;;;;;;7.47;4.13;;;;;;;14.33;68.81;101437.84;4971990;28;20056;-77
2021/06/28 07:59:08;;;;;;;7.18;5.10;;;;;;;14.39;68.57;101441.69;4971140;28;20029;-77
2021/06/28 08:01:34;;;;;;;6.97;4.57;;;;;;;14.52;68.57;101437.34;4972820;28;20027;-76
2021/06/28 08:03:59;;;;;;;10.10;5.32;;;;;;;14.73;68.13;101442.00;4978805;28;20295;-84
2021/06/28 08:06:25;;;;;;;6.78;4.40;;;;;;;14.95;67.68;101440.25;4973943;28;20069;-86
2021/06/28 08:08:51;;;;;;;9.57;5.15;;;;;;;15.26;66.65;101443.75;4980394;28;20053;-85
2021/06/28 08:11:19;;;;;;;9.60;4.88;;;;;;;15.57;66.03;101444.31;4955445;28;20033;-85
2021/06/28 08:13:46;;;;;;;6.20;4.43;;;;;;;15.90;65.12;101456.56;4941159;28;20030;-85
2021/06/28 08:16:19;;;;;;;8.13;4.72;;;;;;;16.03;64.33;101446.66;4983458;28;20042;-86
2021/06/28 08:18:47;;;;;;;6.40;4.40;;;;;;;16.25;63.83;101455.66;4986233;28;20030;-85
2021/06/28 08:21:13;;;;;;;5.75;4.40;;;;;;;16.52;63.12;101449.59;4974617;28;20026;-85
2021/06/28 08:23:39;;;;;;;7.03;4.25;;;;;;;16.76;62.61;101445.56;4974876;28;20435;-85
2021/06/28 08:26:04;;;;;;;6.70;4.93;;;;;;;17.04;61.89;101440.06;4956530;28;20035;-84
2021/06/28 08:28:30;;;;;;;9.63;4.40;;;;;;;17.15;61.36;101447.69;4991382;28;20023;-84
2021/06/28 08:30:55;;;;;;;6.97;4.00;;;;;;;17.35;60.32;101445.00;4975936;28;20033;-84
2021/06/28 08:33:21;;;;;;;6.63;3.80;;;;;;;17.48;60.06;101439.63;4975387;28;20053;-85
2021/06/28 08:35:47;;;;;;;6.85;4.00;;;;;;;17.77;59.68;101453.91;4974610;28;20041;-85
2021/06/28 08:38:13;;;;;;;5.50;3.72;;;;;;;17.89;58.82;101426.97;4977220;28;20387;-85
2021/06/28 08:40:39;;;;;;;6.65;4.18;;;;;;;17.77;59.06;101426.72;4959384;28;20018;-85
2021/06/28 08:43:06;;;;;;;5.57;4.03;;;;;;;17.95;59.43;101456.91;4959325;28;20030;-84
2021/06/28 08:45:38;;;;;;;6.50;3.92;;;;;;;17.95;59.89;101461.53;4990891;28;20026;-84
2021/06/28 08:48:04;;;;;;;7.22;4.05;;;;;;;17.95;59.89;101467.78;4992002;28;20427;-84
2021/06/28 08:50:30;;;;;;;4.75;3.63;;;;;;;17.94;59.90;101465.25;4991011;28;20022;-84
2021/06/28 08:52:56;;;;;;;4.90;3.38;;;;;;;18.02;60.39;101448.75;4994848;28;20029;-84
2021/06/28 08:55:22;;;;;;;6.28;3.63;;;;;;;18.43;60.69;101458.59;4971178;28;20030;-78
2021/06/28 08:57:47;;;;;;;5.70;3.60;;;;;;;18.82;58.11;101448.72;4976138;28;20092;-78
2021/06/28 09:00:15;;;;;;;6.15;3.67;;;;;;;19.16;56.18;101450.28;4960693;28;20117;-78
2021/06/28 09:02:52;;;;;;;6.15;3.92;;;;;;;19.19;56.08;101441.66;4981185;28;20022;-78
2021/06/28 09:05:20;;;;;;;4.22;3.00;;;;;;;19.18;55.71;101436.41;4993000;28;20447;-79
2021/06/28 09:07:45;;;;;;;5.10;3.22;;;;;;;19.09;56.11;101439.41;4988289;28;20018;-80
2021/06/28 09:10:37;;;;;;;4.45;3.00;;;;;;;19.37;55.03;101456.47;4975561;28;20060;-80
2021/06/28 09:13:03;;;;;;;5.18;3.33;;;;;;;19.81;55.16;101449.34;4989292;28;20491;-81
2021/06/28 09:15:37;;;;;;;4.97;3.08;;;;;;;20.29;53.33;101455.03;4978866;28;20027;-80
2021/06/28 09:18:23;;;;;;;3.70;3.00;;;;;;;20.75;50.89;101461.16;4972824;28;20025;-80
2021/06/28 09:20:50;;;;;;;4.38;2.90;;;;;;;20.61;50.78;101471.38;4968726;28;20030;-80
2021/06/28 09:23:26;;;;;;;4.47;2.97;;;;;;;20.68;50.40;101463.97;4985275;28;20085;-81
2021/06/28 09:25:57;;;;;;;4.03;2.92;;;;;;;20.59;51.25;101459.84;4975088;28;20109;-80
2021/06/28 09:28:44;;;;;;;5.53;3.22;;;;;;;20.67;50.46;101456.84;4959295;28;20023;-80
2021/06/28 09:31:16;;;;;;;3.80;2.53;;;;;;;20.53;50.16;101453.34;4959689;28;20054;-81
2021/06/28 09:33:42;;;;;;;3.40;2.35;;;;;;;20.77;50.11;101448.94;4984011;28;20030;-80
2021/06/28 09:36:28;;;;;;;3.05;2.40;;;;;;;20.69;50.73;101442.94;4974955;28;20451;-81
2021/06/28 09:38:53;;;;;;;4.75;3.00;;;;;;;20.54;52.30;101435.94;4991381;28;20045;-85
2021/06/28 09:41:23;;;;;;;4.18;2.67;;;;;;;20.10;53.44;101436.94;4975599;28;20054;-85
2021/06/28 09:43:49;;;;;;;4.85;2.53;;;;;;;19.76;54.41;101442.63;4992033;28;20482;-85
2021/06/28 09:46:19;;;;;;;5.05;3.00;;;;;;;19.91;54.54;101444.22;4975417;28;20121;-84
2021/06/28 09:48:50;;;;;;;4.53;2.50;;;;;;;19.77;53.91;101438.03;4975168;28;20027;-85
2021/06/28 09:51:29;;;;;;;8.50;2.58;;;;;;;19.69;53.72;101438.28;4992803;28;20030;-84
2021/06/28 09:54:15;;;;;;;6.80;2.88;;;;;;;19.46;54.79;101438.81;4975127;28;20038;-84
2021/06/28 09:56:50;;;;;;;4.07;2.55;;;;;;;19.32;55.18;101443.50;4999348;28;20906;-85
2021/06/28 09:59:38;;;;;;;4.05;2.60;;;;;;;19.27;55.09;101440.59;4974664;28;20111;-84
2021/06/28 10:02:25;;;;;;;4.22;2.47;;;;;;;19.39;54.67;101443.47;4958426;28;20031;-84
2021/06/28 10:05:05;;;;;;;3.72;2.65;;;;;;;19.31;54.82;101437.19;4974075;28;20026;-84
2021/06/28 10:07:33;;;;;;;11.10;3.47;;;;;;;19.35;54.10;101437.59;4976120;28;20026;-85
2021/06/28 10:10:06;;;;;;;5.30;3.00;;;;;;;19.70;52.42;101435.34;4974541;28;20034;-84
2021/06/28 10:12:32;;;;;;;4.55;2.72;;;;;;;19.72;52.95;101440.59;4972859;28;20065;-85
2021/06/28 10:14:58;;;;;;;4.88;3.35;;;;;;;19.61;52.59;101435.78;4973989;28;20084;-85
2021/06/28 10:17:24;;;;;;;7.30;3.42;;;;;;;19.65;52.31;101437.84;4968490;28;20026;-77
2021/06/28 10:19:50;;;;;;;9.00;3.42;;;;;;;19.79;52.57;101435.06;4975664;28;20851;-77
2021/06/28 10:22:15;;;;;;;5.05;3.10;;;;;;;19.63;52.38;101425.47;4973362;28;20034;-78
2021/06/28 10:24:41;;;;;;;4.97;3.20;;;;;;;19.46;53.11;101417.00;4971291;28;20022;-78
2021/06/28 10:27:07;;;;;;;5.13;2.90;;;;;;;19.32;53.78;101427.97;4973349;28;20109;-79
2021/06/28 10:29:34;;;;;;;5.10;2.95;;;;;;;19.04;54.63;101430.19;4996681;28;20030;-78
2021/06/28 10:32:04;;;;;;;5.18;3.10;;;;;;;19.01;54.47;101426.00;4970485;28;20026;-78
2021/06/28 10:34:30;;;;;;;5.75;3.45;;;;;;;19.07;54.89;101427.03;4988297;28;20072;-78
2021/06/28 10:36:57;;;;;;;13.98;3.58;;;;;;;19.48;54.64;101425.78;4951550;28;20031;-77
2021/06/28 10:39:31;;;;;;;7.88;3.13;;;;;;;20.17;54.27;101418.63;4969082;28;20034;-78
2021/06/28 10:42:00;;;;;;;3.53;2.38;;;;;;;20.34;52.34;101424.34;4969962;28;20031;-77
2021/06/28 10:44:45;;;;;;;4.57;2.90;;;;;;;20.75;52.03;101422.91;4973242;28;20019;-78
2021/06/28 10:47:11;;;;;;;4.55;2.58;;;;;;;20.73;51.34;101412.19;4970354;28;20034;-79
2021/06/28 10:49:49;;;;;;;3.83;2.63;;;;;;;20.64;49.91;101425.34;4968843;28;20022;-78
2021/06/28 10:52:42;;;;;;;3.70;2.75;;;;;;;20.74;50.05;101419.31;4955192;28;20069;-78
2021/06/28 10:55:13;;;;;;;4.82;2.60;;;;;;;20.36;50.85;101412.13;4984258;28;20039;-78
2021/06/28 10:57:42;;;;;;;4.82;2.40;;;;;;;20.54;50.48;101419.56;4989821;28;20463;-78
2021/06/28 11:00:09;;;;;;;4.00;2.00;;;;;;;20.71;49.20;101421.69;4989972;28;20026;-78
2021/06/28 11:02:38;;;;;;;3.33;2.20;;;;;;;20.93;48.94;101424.78;4990315;28;20045;-79
2021/06/28 11:05:06;;;;;;;4.13;2.33;;;;;;;21.26;48.70;101427.13;4956188;28;20022;-79
2021/06/28 11:07:44;;;;;;;7.07;2.70;;;;;;;21.42;49.07;101423.75;4959925;28;20392;-79
2021/06/28 11:10:36;;;;;;;5.35;2.53;;;;;;;21.65;48.94;101414.81;4974744;28;20030;-78
2021/06/28 11:13:28;;;;;;;3.08;2.00;;;;;;;21.86;48.07;101405.22;4972827;28;20022;-79
2021/06/28 11:16:32;;;;;;;3.80;2.35;;;;;;;21.94;48.30;101407.63;4968414;28;20022;-78
2021/06/28 11:18:58;;;;;;;2.88;2.25;;;;;;;21.96;47.47;101399.16;4970536;28;20026;-77
2021/06/28 11:21:41;;;;;;;4.65;2.08;;;;;;;21.49;48.41;101404.53;4957135;28;20414;-78
2021/06/28 11:24:06;;;;;;;;;;;;;;;21.65;47.66;101406.59;4969775;28;20026;-76
2021/06/28 11:26:35;;;;;;;3.05;2.00;;;;;;;21.92;48.04;101403.44;4952001;28;20397;-79
2021/06/28 11:29:01;;;;;;;3.03;1.90;;;;;;;22.12;47.43;101392.16;4978735;28;20030;-78